createdAt,value
2023-02-09T00:00:02.669Z,98025.41
2023-02-09T00:02:42.157Z,98087.53
2023-02-09T00:05:12.583Z,97890.47
2023-02-09T00:07:41.712Z,98067.78
2023-02-09T00:10:11.012Z,98056.06
2023-02-09T00:12:56.944Z,98049.19
2023-02-09T00:15:25.378Z,98028.13
2023-02-09T00:17:54.026Z,98127.31
2023-02-09T00:20:23.630Z,98019.47
2023-02-09T00:22:51.986Z,98054.91
2023-02-09T00:25:20.504Z,98036.25
2023-02-09T00:27:48.840Z,98087.22
2023-02-09T00:30:17.117Z,98022.97
2023-02-09T00:32:46.634Z,98141.69
2023-02-09T00:35:16.172Z,98028.59
2023-02-09T00:37:45.877Z,98052.78
2023-02-09T00:40:14.833Z,98058.38
2023-02-09T00:42:43.236Z,98030.41
2023-02-09T00:45:11.829Z,98046.00
2023-02-09T00:47:40.789Z,97985.97
2023-02-09T00:50:09.680Z,98039.00
2023-02-09T00:52:38.468Z,98039.81
2023-02-09T00:55:08.895Z,98065.31
2023-02-09T00:57:37.426Z,98031.94
2023-02-09T01:00:07.826Z,97987.88
2023-02-09T01:02:37.332Z,98014.03
2023-02-09T01:05:10.935Z,98015.44
2023-02-09T01:07:39.931Z,97923.78
2023-02-09T01:10:11.096Z,97938.00
2023-02-09T01:12:40.997Z,97960.00
2023-02-09T01:15:11.711Z,98052.63
2023-02-09T01:17:40.558Z,98025.31
2023-02-09T01:20:15.232Z,97986.41
2023-02-09T01:22:43.553Z,98015.75
2023-02-09T01:25:13.329Z,97998.88
2023-02-09T01:27:42.268Z,97972.00
2023-02-09T01:30:12.043Z,98040.56
2023-02-09T01:32:40.663Z,98114.81
2023-02-09T01:35:09.660Z,98090.94
2023-02-09T01:37:39.458Z,97990.88
2023-02-09T01:40:12.779Z,98092.28
2023-02-09T01:42:42.303Z,98008.38
2023-02-09T01:45:24.691Z,97975.34
2023-02-09T01:47:59.968Z,97996.13
2023-02-09T01:50:29.978Z,97999.56
2023-02-09T01:52:58.421Z,98000.47
2023-02-09T01:55:33.499Z,97999.91
2023-02-09T01:58:06.781Z,97991.66
2023-02-09T02:00:35.088Z,97960.03
2023-02-09T02:03:08.098Z,97985.66
2023-02-09T02:05:40.813Z,98003.38
2023-02-09T02:08:17.337Z,97979.69
2023-02-09T02:10:47.238Z,97985.69
2023-02-09T02:13:15.795Z,98014.13
2023-02-09T02:15:52.833Z,98019.41
2023-02-09T02:19:01.103Z,98012.38
2023-02-09T02:22:08.324Z,97988.13
2023-02-09T02:25:14.010Z,97951.28
2023-02-09T02:27:50.211Z,97984.13
2023-02-09T02:30:45.286Z,97956.72
2023-02-09T02:33:27.661Z,97939.78
2023-02-09T02:36:01.305Z,98016.94
2023-02-09T02:38:37.912Z,97922.66
2023-02-09T02:41:15.513Z,97992.53
2023-02-09T02:43:56.261Z,98055.16
2023-02-09T02:46:32.381Z,98014.91
2023-02-09T02:49:06.966Z,97883.00
2023-02-09T02:51:40.606Z,98037.72
2023-02-09T02:54:13.518Z,97999.06
2023-02-09T02:56:45.894Z,97964.84
2023-02-09T02:59:19.015Z,97994.78
2023-02-09T03:01:55.701Z,97848.84
2023-02-09T03:04:27.615Z,98010.88
2023-02-09T03:06:56.016Z,97998.88
2023-02-09T03:09:24.447Z,97965.47
2023-02-09T03:11:57.414Z,98012.81
2023-02-09T03:14:42.496Z,98010.88
2023-02-09T03:17:24.524Z,97993.72
2023-02-09T03:20:01.005Z,97958.84
2023-02-09T03:22:34.025Z,97980.03
2023-02-09T03:25:06.747Z,98016.47
2023-02-09T03:27:40.112Z,98010.44
2023-02-09T03:30:12.850Z,97945.56
2023-02-09T03:32:43.573Z,97961.38
2023-02-09T03:35:16.563Z,97984.84
2023-02-09T03:37:45.114Z,98026.88
2023-02-09T03:40:13.920Z,98020.81
2023-02-09T03:42:42.186Z,97944.66
2023-02-09T03:45:10.724Z,97979.25
2023-02-09T03:47:39.059Z,97963.72
2023-02-09T03:50:08.402Z,98015.88
2023-02-09T03:52:37.978Z,98020.16
2023-02-09T03:55:06.899Z,98020.78
2023-02-09T03:57:53.149Z,98025.84
2023-02-09T04:00:21.999Z,97947.16
2023-02-09T04:02:50.216Z,98006.19
2023-02-09T04:05:18.751Z,98027.56
2023-02-09T04:07:48.454Z,97986.03
2023-02-09T04:10:16.924Z,97977.78
2023-02-09T04:12:45.146Z,97901.13
2023-02-09T04:15:13.318Z,97987.41
2023-02-09T04:17:42.459Z,97957.22
2023-02-09T04:20:12.208Z,97994.56
2023-02-09T04:22:40.370Z,98028.69
2023-02-09T04:25:10.082Z,98006.06
2023-02-09T04:27:38.946Z,97999.28
2023-02-09T04:30:08.749Z,97958.66
2023-02-09T04:32:36.890Z,97943.28
2023-02-09T04:35:05.354Z,98028.41
2023-02-09T04:37:33.441Z,97988.22
2023-02-09T04:40:01.556Z,98059.84
2023-02-09T04:42:32.258Z,97983.28
2023-02-09T04:45:00.374Z,97998.88
2023-02-09T04:47:29.136Z,97944.47
2023-02-09T04:49:57.296Z,97971.31
2023-02-09T04:52:25.892Z,98016.16
2023-02-09T04:54:53.991Z,97982.25
2023-02-09T04:57:39.803Z,98017.84
2023-02-09T05:00:11.994Z,98019.13
2023-02-09T05:02:40.200Z,97920.97
2023-02-09T05:05:08.885Z,97965.22
2023-02-09T05:07:37.112Z,97962.53
2023-02-09T05:10:06.047Z,98007.59
2023-02-09T05:12:34.303Z,97982.03
2023-02-09T05:15:02.503Z,98016.22
2023-02-09T05:17:34.465Z,98039.69
2023-02-09T05:20:02.705Z,97912.06
2023-02-09T05:22:30.899Z,97960.22
2023-02-09T05:24:59.167Z,98020.88
2023-02-09T05:27:27.450Z,97978.38
2023-02-09T05:29:55.604Z,97911.75
2023-02-09T05:32:23.937Z,97981.25
2023-02-09T05:34:53.461Z,97824.50
2023-02-09T05:37:21.679Z,97965.16
2023-02-09T05:39:51.235Z,98028.00
2023-02-09T05:42:19.503Z,98015.97
2023-02-09T05:44:50.337Z,97954.53
2023-02-09T05:47:22.457Z,97971.47
2023-02-09T05:49:50.641Z,97994.19
2023-02-09T05:52:21.093Z,97944.09
2023-02-09T05:54:49.738Z,97914.25
2023-02-09T05:57:18.751Z,98033.59
2023-02-09T05:59:46.931Z,98020.81
2023-02-09T06:02:18.327Z,97984.47
2023-02-09T06:04:46.494Z,98018.84
2023-02-09T06:07:14.721Z,98003.44
2023-02-09T06:09:44.231Z,98017.16
2023-02-09T06:12:13.986Z,98031.72
2023-02-09T06:14:42.534Z,97976.25
2023-02-09T06:17:10.693Z,98018.00
2023-02-09T06:19:38.858Z,98007.47
2023-02-09T06:22:07.427Z,98012.31
2023-02-09T06:24:36.025Z,98011.19
2023-02-09T06:27:05.588Z,97965.38
2023-02-09T06:29:34.068Z,98057.66
2023-02-09T06:32:02.385Z,98022.78
2023-02-09T06:34:30.877Z,98004.13
2023-02-09T06:36:59.009Z,98003.53
2023-02-09T06:39:27.512Z,98028.13
2023-02-09T06:41:55.689Z,98017.88
2023-02-09T06:44:25.290Z,97982.75
2023-02-09T06:46:53.467Z,97971.16
2023-02-09T06:49:23.972Z,97983.78
2023-02-09T06:51:52.378Z,98023.13
2023-02-09T06:54:21.029Z,97700.88
2023-02-09T06:56:49.224Z,98074.69
2023-02-09T06:59:17.571Z,97972.72
2023-02-09T07:01:47.109Z,98064.63
2023-02-09T07:04:15.546Z,98030.97
2023-02-09T07:06:44.118Z,97984.50
2023-02-09T07:09:12.345Z,98034.63
2023-02-09T07:11:40.528Z,98056.72
2023-02-09T07:14:08.713Z,98046.44
2023-02-09T07:16:37.021Z,98072.69
2023-02-09T07:19:06.570Z,98063.94
2023-02-09T07:21:34.868Z,97955.56
2023-02-09T07:24:03.008Z,98082.84
2023-02-09T07:26:31.223Z,98042.78
2023-02-09T07:28:59.436Z,97966.84
2023-02-09T07:31:28.095Z,98057.63
2023-02-09T07:33:56.670Z,98008.84
2023-02-09T07:36:26.651Z,98028.25
2023-02-09T07:38:55.893Z,97978.56
2023-02-09T07:41:26.158Z,97868.22
2023-02-09T07:43:54.483Z,98062.06
2023-02-09T07:46:25.507Z,98036.19
2023-02-09T07:48:53.784Z,98057.03
2023-02-09T07:51:25.879Z,98053.00
2023-02-09T07:53:54.587Z,98071.03
2023-02-09T07:56:22.915Z,98012.13
2023-02-09T07:58:51.700Z,98117.09
2023-02-09T08:01:21.248Z,98032.06
2023-02-09T08:03:51.742Z,98058.31
2023-02-09T08:06:39.834Z,98054.94
2023-02-09T08:09:11.049Z,98031.78
2023-02-09T08:11:45.991Z,98008.38
2023-02-09T08:14:18.738Z,98056.28
2023-02-09T08:16:48.361Z,98026.44
2023-02-09T08:19:22.209Z,98047.13
2023-02-09T08:21:52.303Z,98062.09
2023-02-09T08:24:21.774Z,98048.91
2023-02-09T08:26:50.240Z,98015.97
2023-02-09T08:29:18.427Z,98034.19
2023-02-09T08:31:46.981Z,98009.69
2023-02-09T08:34:15.501Z,98013.81
2023-02-09T08:36:43.659Z,98082.91
2023-02-09T08:39:13.197Z,98022.34
2023-02-09T08:41:41.362Z,98005.28
2023-02-09T08:44:09.547Z,98031.22
2023-02-09T08:46:37.947Z,98017.94
2023-02-09T08:49:06.171Z,98030.56
2023-02-09T08:51:34.333Z,98044.41
2023-02-09T08:54:02.549Z,98055.16
2023-02-09T08:56:32.042Z,97776.72
2023-02-09T08:59:00.228Z,98010.34
2023-02-09T09:01:28.427Z,98020.53
2023-02-09T09:03:59.079Z,98033.91
2023-02-09T09:06:27.441Z,98014.31
2023-02-09T09:08:55.950Z,98059.75
2023-02-09T09:11:24.107Z,98065.31
2023-02-09T09:13:53.628Z,98077.13
2023-02-09T09:16:23.787Z,98087.03
2023-02-09T09:18:53.226Z,98044.13
2023-02-09T09:21:21.356Z,97971.53
2023-02-09T09:23:49.808Z,98036.25
2023-02-09T09:26:18.955Z,98010.31
2023-02-09T09:28:50.961Z,98043.91
2023-02-09T09:31:20.948Z,98046.84
2023-02-09T09:33:49.327Z,98036.03
2023-02-09T09:36:17.527Z,98022.63
2023-02-09T09:38:45.680Z,97986.44
2023-02-09T09:41:24.884Z,98054.13
2023-02-09T09:43:54.803Z,98034.34
2023-02-09T09:46:34.757Z,98091.66
2023-02-09T09:49:03.561Z,97999.34
2023-02-09T09:51:39.504Z,98063.41
2023-02-09T09:54:15.744Z,97982.41
2023-02-09T09:56:45.963Z,98080.47
2023-02-09T09:59:22.303Z,98065.13
2023-02-09T10:01:54.186Z,98058.78
2023-02-09T10:04:22.533Z,98053.56
2023-02-09T10:07:00.242Z,98066.09
2023-02-09T10:09:42.288Z,98055.97
2023-02-09T10:12:29.736Z,98010.03
2023-02-09T10:14:57.930Z,98074.81
2023-02-09T10:17:27.455Z,98052.13
2023-02-09T10:20:06.191Z,98058.97
2023-02-09T10:22:34.440Z,98063.50
2023-02-09T10:25:34.218Z,98068.44
2023-02-09T10:28:06.393Z,98047.38
2023-02-09T10:30:35.264Z,98031.16
2023-02-09T10:33:05.034Z,98058.09
2023-02-09T10:35:44.098Z,98060.91
2023-02-09T10:38:18.860Z,98061.59
2023-02-09T10:40:48.258Z,98051.75
2023-02-09T10:43:23.898Z,98078.22
2023-02-09T10:45:57.278Z,98057.72
2023-02-09T10:48:29.041Z,97978.41
2023-02-09T10:51:01.564Z,97991.06
2023-02-09T10:53:33.693Z,98040.69
2023-02-09T10:56:06.815Z,98050.50
2023-02-09T10:58:39.131Z,98044.91
2023-02-09T11:01:18.381Z,98047.28
2023-02-09T11:04:11.477Z,98061.41
2023-02-09T11:06:47.730Z,98049.28
2023-02-09T11:09:19.647Z,98017.34
2023-02-09T11:11:47.922Z,98024.06
2023-02-09T11:14:20.317Z,98051.56
2023-02-09T11:16:56.697Z,98033.59
2023-02-09T11:19:59.626Z,98029.13
2023-02-09T11:22:52.883Z,97984.56
2023-02-09T11:25:26.410Z,97953.81
2023-02-09T11:28:18.610Z,98017.44
2023-02-09T11:31:17.735Z,98024.16
2023-02-09T11:33:55.881Z,97957.34
2023-02-09T11:36:47.243Z,97912.22
2023-02-09T11:39:22.701Z,97984.16
2023-02-09T11:42:15.197Z,98045.31
2023-02-09T11:44:53.091Z,97958.91
2023-02-09T11:47:29.902Z,98006.06
2023-02-09T11:50:04.582Z,97974.38
2023-02-09T11:52:41.647Z,98070.88
2023-02-09T11:55:30.321Z,97973.91
2023-02-09T11:58:12.906Z,97984.81
2023-02-09T12:00:56.292Z,97965.66
2023-02-09T12:03:30.041Z,97958.19
2023-02-09T12:05:58.354Z,97983.72
2023-02-09T12:08:48.537Z,97987.25
2023-02-09T12:11:32.141Z,97924.47
2023-02-09T12:14:27.048Z,97965.06
2023-02-09T12:17:01.430Z,97967.66
2023-02-09T12:19:36.660Z,97963.94
2023-02-09T12:22:57.988Z,97891.16
2023-02-09T12:25:53.580Z,97928.19
2023-02-09T12:28:42.227Z,97877.09
2023-02-09T12:31:26.038Z,97931.94
2023-02-09T12:34:29.934Z,97901.38
2023-02-09T12:37:27.393Z,97923.56
2023-02-09T12:40:25.218Z,97992.53
2023-02-09T12:43:37.661Z,97959.28
2023-02-09T12:46:20.896Z,97952.03
2023-02-09T12:49:04.570Z,97931.56
2023-02-09T12:52:16.284Z,97929.50
2023-02-09T12:54:49.592Z,97934.03
2023-02-09T12:57:57.090Z,97930.00
2023-02-09T13:00:57.397Z,97920.84
2023-02-09T13:03:27.680Z,97917.56
2023-02-09T13:06:01.274Z,97925.00
2023-02-09T13:08:48.519Z,97996.88
2023-02-09T13:11:34.017Z,97892.97
2023-02-09T13:14:07.572Z,97938.84
2023-02-09T13:17:22.724Z,97918.13
2023-02-09T13:20:02.380Z,97863.97
2023-02-09T13:22:40.841Z,97913.91
2023-02-09T13:25:17.541Z,97924.75
2023-02-09T13:27:47.625Z,97941.06
2023-02-09T13:30:26.591Z,97948.53
2023-02-09T13:33:05.359Z,97938.34
2023-02-09T13:35:39.299Z,97930.09
2023-02-09T13:38:17.103Z,97913.53
2023-02-09T13:40:51.338Z,97914.06
2023-02-09T13:43:26.376Z,97901.38
2023-02-09T13:45:56.735Z,97934.44
2023-02-09T13:48:30.138Z,97935.19
2023-02-09T13:51:02.162Z,97915.53
2023-02-09T13:53:32.404Z,97908.50
2023-02-09T13:56:01.955Z,97909.41
2023-02-09T13:58:35.247Z,97950.78
2023-02-09T14:01:08.563Z,97928.97
2023-02-09T14:03:57.343Z,97888.84
2023-02-09T14:06:35.067Z,97928.63
2023-02-09T14:09:05.311Z,97930.09
2023-02-09T14:11:42.843Z,97965.59
2023-02-09T14:14:19.691Z,97937.59
2023-02-09T14:16:53.729Z,97935.09
2023-02-09T14:19:29.389Z,97929.06
2023-02-09T14:21:58.045Z,97966.06
2023-02-09T14:24:28.020Z,97968.78
2023-02-09T14:27:03.856Z,97960.13
2023-02-09T14:29:35.064Z,97981.50
2023-02-09T14:32:32.016Z,97951.00
2023-02-09T14:35:17.904Z,97841.38
2023-02-09T14:37:48.957Z,97968.56
2023-02-09T14:40:31.734Z,97977.25
2023-02-09T14:43:03.714Z,97948.56
2023-02-09T14:45:40.506Z,97975.47
2023-02-09T14:48:21.921Z,97908.69
2023-02-09T14:50:54.861Z,97983.78
2023-02-09T14:53:24.967Z,97973.34
2023-02-09T14:55:54.833Z,98084.50
2023-02-09T14:58:25.668Z,97974.03
2023-02-09T15:00:57.031Z,97986.88
2023-02-09T15:03:29.671Z,97947.97
2023-02-09T15:06:08.430Z,98018.38
2023-02-09T15:08:39.169Z,97998.88
2023-02-09T15:11:23.799Z,97947.81
2023-02-09T15:13:56.967Z,97986.84
2023-02-09T15:16:25.294Z,97980.44
2023-02-09T15:18:53.535Z,97972.63
2023-02-09T15:21:23.171Z,97925.72
2023-02-09T15:23:51.403Z,97996.97
2023-02-09T15:26:22.639Z,97957.84
2023-02-09T15:28:50.795Z,97973.25
2023-02-09T15:31:19.088Z,97892.84
2023-02-09T15:33:47.330Z,97997.56
2023-02-09T15:36:22.126Z,97958.22
2023-02-09T15:38:50.390Z,97981.25
2023-02-09T15:41:36.457Z,97921.78
2023-02-09T15:44:32.401Z,97941.28
2023-02-09T15:47:18.248Z,97976.06
2023-02-09T15:49:46.493Z,97959.75
2023-02-09T15:52:18.665Z,97991.19
2023-02-09T15:54:47.301Z,98016.78
2023-02-09T15:57:16.563Z,97976.13
2023-02-09T15:59:46.356Z,98012.81
2023-02-09T16:02:17.265Z,98011.69
2023-02-09T16:04:45.461Z,98030.03
2023-02-09T16:07:23.883Z,97999.28
2023-02-09T16:09:52.348Z,97989.09
2023-02-09T16:12:20.985Z,98072.94
2023-02-09T16:14:49.665Z,98038.97
2023-02-09T16:17:18.873Z,98036.44
2023-02-09T16:19:48.974Z,97978.88
2023-02-09T16:22:22.624Z,98044.22
2023-02-09T16:24:51.196Z,98114.53
2023-02-09T16:27:25.887Z,98030.09
2023-02-09T16:29:54.051Z,98044.28
2023-02-09T16:32:24.696Z,98026.66
2023-02-09T16:34:54.959Z,97985.44
2023-02-09T16:37:29.595Z,98039.56
2023-02-09T16:39:59.022Z,98066.88
2023-02-09T16:42:29.341Z,98041.50
2023-02-09T16:44:57.584Z,98065.59
2023-02-09T16:47:28.062Z,97992.81
2023-02-09T16:50:00.622Z,98020.19
2023-02-09T16:52:31.000Z,98074.53
2023-02-09T16:55:01.879Z,98085.53
2023-02-09T16:57:30.405Z,98001.94
2023-02-09T16:59:58.701Z,98065.63
2023-02-09T17:02:39.991Z,98057.31
2023-02-09T17:05:19.101Z,98060.84
2023-02-09T17:07:55.190Z,98086.28
2023-02-09T17:10:29.551Z,98065.41
2023-02-09T17:12:58.046Z,98072.91
2023-02-09T17:15:31.426Z,98128.25
2023-02-09T17:18:04.107Z,98031.81
2023-02-09T17:20:38.811Z,98087.31
2023-02-09T17:23:08.499Z,98078.47
2023-02-09T17:25:36.702Z,98102.22
2023-02-09T17:28:05.590Z,98086.19
2023-02-09T17:30:35.098Z,98048.19
2023-02-09T17:33:07.409Z,98086.59
2023-02-09T17:36:10.157Z,98135.56
2023-02-09T17:38:31.968Z,98104.84
2023-02-09T17:41:03.578Z,98066.22
2023-02-09T17:43:31.793Z,98054.38
2023-02-09T17:46:00.506Z,98099.38
2023-02-09T17:48:29.798Z,98110.84
2023-02-09T17:51:00.219Z,98099.22
2023-02-09T17:53:34.955Z,98043.63
2023-02-09T17:56:03.368Z,98103.38
2023-02-09T17:58:31.577Z,98144.94
2023-02-09T18:00:59.884Z,98128.72
2023-02-09T18:03:28.110Z,98148.81
2023-02-09T18:06:01.410Z,98114.75
2023-02-09T18:08:31.154Z,98091.53
2023-02-09T18:10:59.382Z,98085.50
2023-02-09T18:13:28.014Z,98118.84
2023-02-09T18:15:56.463Z,98094.84
2023-02-09T18:18:24.703Z,98081.97
2023-02-09T18:20:52.957Z,98076.03
2023-02-09T18:23:22.951Z,98076.34
2023-02-09T18:25:53.840Z,98127.25
2023-02-09T18:28:22.165Z,98097.19
2023-02-09T18:30:50.417Z,98085.28
2023-02-09T18:33:18.904Z,98104.81
2023-02-09T18:35:47.452Z,98163.66
2023-02-09T18:38:16.783Z,98167.00
2023-02-09T18:40:45.236Z,98161.72
2023-02-09T18:43:15.807Z,98140.84
2023-02-09T18:45:44.250Z,98118.22
2023-02-09T18:48:12.827Z,98160.75
2023-02-09T18:50:41.249Z,98176.03
2023-02-09T18:53:11.752Z,98182.84
2023-02-09T18:55:39.904Z,98166.84
2023-02-09T18:58:10.282Z,98134.50
2023-02-09T19:00:39.837Z,98168.69
2023-02-09T19:03:07.974Z,98149.09
2023-02-09T19:05:36.113Z,98158.25
2023-02-09T19:08:04.712Z,98192.63
2023-02-09T19:10:33.227Z,98154.69
2023-02-09T19:13:07.622Z,98168.03
2023-02-09T19:15:39.654Z,98177.38
2023-02-09T19:18:07.844Z,98163.56
2023-02-09T19:20:36.409Z,98201.81
2023-02-09T19:23:06.677Z,98190.31
2023-02-09T19:25:35.262Z,98172.78
2023-02-09T19:28:03.462Z,98224.13
2023-02-09T19:30:31.720Z,98169.53
2023-02-09T19:33:02.052Z,98185.56
2023-02-09T19:35:30.276Z,98202.00
2023-02-09T19:37:59.425Z,98022.44
2023-02-09T19:40:35.523Z,98218.56
2023-02-09T19:43:04.818Z,98185.53
2023-02-09T19:45:36.591Z,98045.66
2023-02-09T19:48:08.220Z,98140.06
2023-02-09T19:50:37.715Z,98209.13
2023-02-09T19:53:07.333Z,98151.69
2023-02-09T19:55:35.802Z,98202.03
2023-02-09T19:58:04.053Z,98152.66
2023-02-09T20:00:32.819Z,98157.94
2023-02-09T20:03:01.127Z,98209.06
2023-02-09T20:05:30.723Z,98184.75
2023-02-09T20:07:59.071Z,98203.31
2023-02-09T20:10:27.842Z,98229.25
2023-02-09T20:12:56.015Z,98218.59
2023-02-09T20:15:24.237Z,98170.66
2023-02-09T20:17:52.584Z,98145.56
2023-02-09T20:20:21.065Z,98215.13
2023-02-09T20:22:51.991Z,98158.16
2023-02-09T20:25:20.454Z,98144.31
2023-02-09T20:27:50.522Z,98208.31
2023-02-09T20:30:19.251Z,98016.25
2023-02-09T20:32:47.496Z,98148.69
2023-02-09T20:35:16.474Z,98190.47
2023-02-09T20:37:45.240Z,98219.38
2023-02-09T20:40:15.374Z,98140.66
2023-02-09T20:43:01.268Z,98190.75
2023-02-09T20:45:47.302Z,98176.28
2023-02-09T20:48:15.608Z,98191.97
2023-02-09T20:50:45.325Z,98226.09
2023-02-09T20:53:13.947Z,98191.97
2023-02-09T20:55:43.813Z,98246.78
2023-02-09T20:58:13.727Z,98128.72
2023-02-09T21:00:42.591Z,98237.41
2023-02-09T21:03:10.884Z,98208.88
2023-02-09T21:05:39.682Z,98240.97
2023-02-09T21:08:09.142Z,98244.03
2023-02-09T21:10:38.493Z,98209.31
2023-02-09T21:13:10.064Z,98178.63
2023-02-09T21:15:42.253Z,98115.34
2023-02-09T21:18:10.554Z,98204.25
2023-02-09T21:20:39.470Z,98236.97
2023-02-09T21:23:07.748Z,98232.63
2023-02-09T21:25:37.692Z,98211.25
2023-02-09T21:28:07.556Z,98215.03
2023-02-09T21:30:35.898Z,98148.19
2023-02-09T21:33:04.241Z,98256.72
2023-02-09T21:35:32.739Z,98250.22
2023-02-09T21:38:01.059Z,98187.97
2023-02-09T21:40:29.378Z,98245.97
2023-02-09T21:42:57.531Z,98250.69
2023-02-09T21:45:27.360Z,98241.00
2023-02-09T21:47:55.519Z,98223.09
2023-02-09T21:50:23.841Z,98284.09
2023-02-09T21:52:52.054Z,98296.63
2023-02-09T21:55:20.424Z,98271.59
2023-02-09T21:57:48.997Z,98257.97
2023-02-09T22:00:18.148Z,98239.09
2023-02-09T22:02:47.767Z,98252.94
2023-02-09T22:05:16.085Z,98231.44
2023-02-09T22:07:45.564Z,98248.00
2023-02-09T22:10:13.945Z,98220.69
2023-02-09T22:12:42.246Z,98277.53
2023-02-09T22:15:11.639Z,98297.25
2023-02-09T22:17:40.583Z,98284.28
2023-02-09T22:20:12.572Z,98294.66
2023-02-09T22:22:40.849Z,98244.06
2023-02-09T22:25:09.808Z,98252.91
2023-02-09T22:27:38.078Z,98241.00
2023-02-09T22:30:07.173Z,98180.84
2023-02-09T22:32:35.732Z,98187.84
2023-02-09T22:35:03.938Z,98253.44
2023-02-09T22:37:33.446Z,98242.28
2023-02-09T22:40:01.677Z,98256.31
2023-02-09T22:42:30.100Z,98298.00
2023-02-09T22:44:58.284Z,98301.72
2023-02-09T22:47:26.472Z,98278.19
2023-02-09T22:49:55.222Z,98322.16
2023-02-09T22:52:23.723Z,98288.47
2023-02-09T22:54:54.021Z,98282.19
2023-02-09T22:57:22.242Z,98294.19
2023-02-09T22:59:50.579Z,98271.31
2023-02-09T23:02:18.813Z,98254.88
2023-02-09T23:04:47.199Z,98283.38
2023-02-09T23:07:16.276Z,98283.22
2023-02-09T23:09:45.248Z,98310.88
2023-02-09T23:12:20.839Z,98300.63
2023-02-09T23:14:49.055Z,98321.19
2023-02-09T23:17:17.262Z,98271.31
2023-02-09T23:19:45.562Z,98261.19
2023-02-09T23:22:13.779Z,98331.28
2023-02-09T23:24:42.063Z,98327.03
2023-02-09T23:27:10.196Z,98281.63
2023-02-09T23:29:40.119Z,98302.81
2023-02-09T23:32:08.307Z,98338.13
2023-02-09T23:34:36.537Z,98332.34
2023-02-09T23:37:13.284Z,98322.91
2023-02-09T23:39:51.826Z,98334.22
2023-02-09T23:42:19.998Z,98342.03
2023-02-09T23:44:49.604Z,98311.34
2023-02-09T23:47:18.234Z,98297.09
2023-02-09T23:49:46.478Z,98274.44
2023-02-09T23:52:14.747Z,98323.31
2023-02-09T23:54:43.296Z,98307.03
2023-02-09T23:57:11.571Z,98324.03
2023-02-09T23:59:40.698Z,98306.47
